Parks, Arizona
Current Conditions -  °F | °C
As of 1:57 PM on Sunday 23 Nov 2014 (Local Time) from KFLG Reporting Station
Clear Clear  
Wind Chill: 39°   Ceiling: Unl
Heat Index: 44°   Visibility: 10mi
Dew Point: -10°   Wind: 10mph
Humidity: 10%   Direction: 10°N
Pressure: 30.11"   Gusts: 21mph
Location:  35.26°N, 111.95°W
Report Text: KFLG 232057Z 01009G18KT 10SM CLR 07/M23 A3011 RMK AO2 SLP156 T00671233 56009
Loading
Personal Weather Stations






























Interactive Weather Map New forecast layout! Learn more

10-Day Weather Forecast

Advertisements
Track Severe Weather on mobile